Time;durP1;ratioP1;P1;durP2;ratioP2;P2;SDS_P1;SDS_P2;PMS_P1;PMS_P2;Temp;Humidity;BMP_temperature;BMP_pressure;BME280_temperature;BME280_humidity;BME280_pressure;Samples;Min_cycle;Max_cycle;Signal;HPM_P1;HPM_P2
2023/03/25 00:00:33;;;;;;;1.93;0.60;;;;;;;17.99;55.53;96217.28;10384960;28;20037;-34
2023/03/25 00:05:33;;;;;;;1.63;0.60;;;;;;;17.99;55.39;96205.44;10377312;28;20065;-34
2023/03/25 00:10:34;;;;;;;3.60;0.50;;;;;;;17.99;55.37;96227.44;10389979;28;20284;-33
2023/03/25 00:15:34;;;;;;;1.83;0.98;;;;;;;17.99;57.28;96189.44;10390802;28;20099;-34
2023/03/25 00:20:35;;;;;;;1.17;0.70;;;;;;;17.99;55.62;96212.22;10381856;28;20045;-35
2023/03/25 00:25:35;;;;;;;5.20;1.97;;;;;;;18.01;56.69;96202.91;10389905;28;20037;-33
2023/03/25 00:30:37;;;;;;;5.43;1.40;;;;;;;18.05;59.65;96189.38;10389810;28;20037;-34
2023/03/25 00:35:43;;;;;;;2.60;0.82;;;;;;;18.09;59.70;96174.13;10377314;28;20722;-34
2023/03/25 00:40:45;;;;;;;2.63;0.77;;;;;;;18.05;59.17;96161.50;10389293;28;20056;-34
2023/03/25 00:45:45;;;;;;;1.85;0.82;;;;;;;18.02;56.76;96162.41;10385888;28;20041;-35
2023/03/25 00:50:47;;;;;;;4.50;0.90;;;;;;;18.04;57.52;96149.69;10385948;28;20038;-35
2023/03/25 00:55:48;;;;;;;1.10;0.80;;;;;;;18.03;58.20;96153.09;10385832;28;20041;-35
2023/03/25 01:00:48;;;;;;;1.57;0.93;;;;;;;18.03;58.44;96148.88;10384334;28;20777;-36
2023/03/25 01:05:49;;;;;;;3.85;1.02;;;;;;;18.05;59.52;96166.56;10386718;28;20304;-35
2023/03/25 01:10:53;;;;;;;1.50;0.70;;;;;;;18.07;59.09;96185.16;10381266;28;20037;-34
2023/03/25 01:15:53;;;;;;;2.00;0.63;;;;;;;18.06;59.54;96173.31;10393642;28;20404;-35
2023/03/25 01:20:53;;;;;;;3.27;1.03;;;;;;;18.05;58.78;96174.16;10392472;28;20048;-34
2023/03/25 01:25:54;;;;;;;3.47;0.70;;;;;;;18.04;58.55;96172.50;10391299;28;20041;-35
2023/03/25 01:31:03;;;;;;;1.48;0.70;;;;;;;18.05;58.94;96172.50;10384954;28;20489;-33
2023/03/25 01:36:08;;;;;;;2.22;0.70;;;;;;;18.07;59.51;96196.13;10375982;28;20034;-34
2023/03/25 01:41:09;;;;;;;2.85;1.15;;;;;;;18.11;59.68;96190.19;10387353;28;20080;-33
2023/03/25 01:46:16;;;;;;;2.30;0.63;;;;;;;18.10;59.58;96180.06;10393624;28;20524;-34
2023/03/25 01:51:21;;;;;;;2.28;1.13;;;;;;;18.04;58.83;96175.03;10389353;28;20083;-35
2023/03/25 01:56:29;;;;;;;4.38;1.00;;;;;;;18.04;58.63;96188.53;10388884;28;20124;-34
2023/03/25 02:01:30;;;;;;;1.27;0.68;;;;;;;18.02;57.56;96166.59;10384293;28;20528;-35
2023/03/25 02:06:52;;;;;;;3.33;0.73;;;;;;;18.00;56.45;96164.06;10384532;28;20075;-37
2023/03/25 02:11:53;;;;;;;0.90;0.40;;;;;;;18.00;56.34;96148.06;10392784;28;20064;-34
2023/03/25 02:17:09;;;;;;;1.58;0.80;;;;;;;18.01;55.91;96213.06;10379862;28;20045;-34
2023/03/25 02:22:16;;;;;;;0.85;0.70;;;;;;;18.00;55.63;96207.13;10379717;28;20456;-34
2023/03/25 02:27:32;;;;;;;1.67;0.60;;;;;;;17.94;55.64;96188.59;10397307;28;20076;-34
2023/03/25 02:32:41;;;;;;;2.05;0.73;;;;;;;17.98;55.65;96193.66;10378234;28;20057;-34
2023/03/25 02:38:05;;;;;;;1.00;0.88;;;;;;;17.98;55.17;96213.09;10383551;28;20670;-34
2023/03/25 02:43:15;;;;;;;2.95;0.93;;;;;;;18.02;59.32;96222.31;10387336;28;20498;-34
2023/03/25 02:48:32;;;;;;;3.05;1.00;;;;;;;18.08;59.62;96224.84;10378916;28;20169;-34
2023/03/25 02:53:35;;;;;;;3.50;0.93;;;;;;;18.03;58.25;96229.06;10392169;28;20033;-34
2023/03/25 02:58:37;;;;;;;1.50;0.75;;;;;;;18.00;56.06;96229.09;10382596;28;20525;-35
2023/03/25 03:03:37;;;;;;;2.15;0.60;;;;;;;17.98;55.48;96205.47;10376466;28;20410;-34
2023/03/25 03:08:49;;;;;;;1.45;0.77;;;;;;;17.97;55.44;96226.56;10388576;28;20022;-34
2023/03/25 03:14:27;;;;;;;2.25;1.58;;;;;;;17.97;55.65;96245.16;10394343;28;20025;-34
2023/03/25 03:19:59;;;;;;;1.52;0.75;;;;;;;17.98;57.66;96246.84;10393656;28;20059;-34
2023/03/25 03:25:09;;;;;;;3.47;0.70;;;;;;;18.00;58.23;96251.91;10390296;28;20120;-33
2023/03/25 03:30:17;;;;;;;2.15;0.70;;;;;;;17.99;58.37;96245.16;10400809;28;20507;-35
2023/03/25 03:35:25;;;;;;;1.15;0.70;;;;;;;17.99;58.28;96253.56;10396380;28;20040;-35
2023/03/25 03:40:28;;;;;;;2.80;0.70;;;;;;;17.98;57.90;96244.28;10393514;28;20453;-36
2023/03/25 03:45:36;;;;;;;2.17;1.17;;;;;;;18.00;58.53;96251.91;10400311;28;20029;-34
2023/03/25 03:50:45;;;;;;;1.67;0.82;;;;;;;18.05;59.24;96257.75;10394779;28;20029;-34
2023/03/25 03:55:51;;;;;;;1.65;0.68;;;;;;;18.07;59.09;96261.97;10371846;28;20091;-33
2023/03/25 04:01:02;;;;;;;3.40;0.80;;;;;;;18.00;58.52;96255.25;10387668;28;20041;-34
2023/03/25 04:06:34;;;;;;;1.00;0.60;;;;;;;18.00;58.00;96246.84;10398916;28;20069;-34
2023/03/25 04:11:51;;;;;;;2.60;1.00;;;;;;;17.96;57.35;96240.09;10383386;28;20121;-34
2023/03/25 04:16:54;;;;;;;2.78;1.05;;;;;;;17.95;56.34;96257.00;10390274;28;20580;-35
2023/03/25 04:21:54;;;;;;;1.20;0.80;;;;;;;17.96;56.46;96262.88;10383529;28;20037;-34
2023/03/25 04:26:56;;;;;;;0.80;0.40;;;;;;;17.96;56.45;96265.41;10396556;28;20160;-34
2023/03/25 04:31:57;;;;;;;1.77;0.60;;;;;;;17.94;56.53;96254.47;10394823;28;20140;-34
2023/03/25 04:36:57;;;;;;;3.30;1.00;;;;;;;17.96;56.90;96247.69;10393608;28;20127;-34
2023/03/25 04:42:02;;;;;;;1.90;0.50;;;;;;;17.95;55.99;96264.59;10399650;28;20045;-34
2023/03/25 04:47:02;;;;;;;0.35;0.30;;;;;;;17.95;55.30;96261.19;10395000;28;20045;-34
2023/03/25 04:52:03;;;;;;;1.80;0.77;;;;;;;18.00;58.92;96269.63;10381668;28;20041;-34
2023/03/25 04:57:03;;;;;;;1.80;0.43;;;;;;;18.02;58.82;96272.97;10394058;28;20091;-34
2023/03/25 05:02:05;;;;;;;1.87;0.50;;;;;;;18.01;58.66;96286.50;10387698;28;20465;-34
2023/03/25 05:07:05;;;;;;;2.05;0.73;;;;;;;17.94;57.35;96295.84;10389862;28;20496;-35
2023/03/25 05:12:10;;;;;;;0.63;0.60;;;;;;;17.93;55.63;96276.38;10388474;28;20032;-33
2023/03/25 05:17:10;;;;;;;1.52;0.60;;;;;;;17.92;55.34;96287.38;10390309;28;20105;-34
2023/03/25 05:22:11;;;;;;;0.30;0.30;;;;;;;17.92;55.23;96305.09;10389558;28;20026;-33
2023/03/25 05:27:12;;;;;;;1.10;0.50;;;;;;;17.90;55.31;96293.31;10379657;28;20029;-34
2023/03/25 05:32:16;;;;;;;0.70;0.40;;;;;;;17.91;55.05;96297.53;10384067;28;20498;-34
2023/03/25 05:37:17;;;;;;;1.27;0.50;;;;;;;17.91;54.91;96305.97;10390954;28;20550;-34
2023/03/25 05:42:21;;;;;;;0.88;0.70;;;;;;;17.91;55.04;96295.00;10389444;28;20052;-37
2023/03/25 05:47:23;;;;;;;0.60;0.43;;;;;;;17.90;54.68;96284.00;10383672;28;20034;-34
2023/03/25 05:52:24;;;;;;;0.50;0.30;;;;;;;17.91;54.86;96275.56;10384484;28;20065;-33
2023/03/25 05:57:24;;;;;;;1.48;0.50;;;;;;;17.95;58.66;96289.91;10390846;28;20824;-33
2023/03/25 06:02:25;;;;;;;1.80;0.85;;;;;;;18.00;58.74;96269.63;10393664;28;20492;-34
2023/03/25 06:07:25;;;;;;;3.80;0.77;;;;;;;18.00;58.22;96265.38;10388154;28;20631;-32
2023/03/25 06:12:26;;;;;;;3.23;0.80;;;;;;;17.93;56.39;96283.16;10387490;28;20342;-34
2023/03/25 06:17:26;;;;;;;1.17;0.50;;;;;;;17.91;55.46;96279.81;10390601;28;20045;-35
2023/03/25 06:22:27;;;;;;;1.33;0.50;;;;;;;17.92;56.00;96276.41;10388073;28;20041;-34
2023/03/25 06:27:27;;;;;;;2.10;0.50;;;;;;;17.91;56.75;96279.81;10381114;28;20044;-35
2023/03/25 06:32:27;;;;;;;2.67;0.63;;;;;;;17.92;57.59;96256.16;10392012;28;20405;-33
2023/03/25 06:37:28;;;;;;;6.13;0.50;;;;;;;17.92;57.57;96273.88;10388942;28;20299;-34
2023/03/25 06:42:29;;;;;;;3.03;0.85;;;;;;;17.92;56.93;96276.41;10394609;28;20044;-37
2023/03/25 06:47:51;;;;;;;0.82;0.50;;;;;;;17.92;57.72;96263.75;10396478;28;20827;-34
2023/03/25 06:52:51;;;;;;;1.63;0.50;;;;;;;17.92;55.91;96246.03;10391147;28;20038;-34
2023/03/25 06:57:55;;;;;;;1.23;0.50;;;;;;;17.90;56.11;96250.28;10387960;28;20107;-34
2023/03/25 07:02:57;;;;;;;2.10;1.05;;;;;;;17.97;58.11;96249.34;10396685;28;20311;-34
2023/03/25 07:07:57;;;;;;;2.03;0.50;;;;;;;18.03;58.42;96251.88;10390266;28;20037;-35
2023/03/25 07:12:58;;;;;;;4.78;1.02;;;;;;;17.99;57.66;96262.88;10398040;28;20413;-34
2023/03/25 07:17:58;;;;;;;3.10;1.37;;;;;;;17.93;57.87;96258.66;10393310;28;20048;-35
2023/03/25 07:22:59;;;;;;;1.60;0.60;;;;;;;17.96;55.25;96247.69;10393942;28;20049;-34
2023/03/25 07:27:59;;;;;;;3.63;0.87;;;;;;;17.95;56.94;96246.84;10389111;28;20045;-33
2023/03/25 07:33:00;;;;;;;4.20;0.77;;;;;;;17.97;57.52;96254.44;10391712;28;20664;-34
2023/03/25 07:38:00;;;;;;;1.27;0.50;;;;;;;17.92;55.91;96233.38;10383935;28;20045;-35
2023/03/25 07:43:00;;;;;;;3.37;1.20;;;;;;;17.90;58.84;96232.53;10394556;28;20036;-34
2023/03/25 07:48:13;;;;;;;6.18;1.42;;;;;;;17.96;58.55;96261.19;10387443;28;20299;-34
2023/03/25 07:53:13;;;;;;;4.15;1.10;;;;;;;17.97;59.29;96277.22;10395011;28;20091;-34
2023/03/25 07:58:14;;;;;;;6.87;1.27;;;;;;;17.97;59.04;96254.44;10385070;28;20087;-35
2023/03/25 08:03:15;;;;;;;3.53;1.60;;;;;;;17.98;59.16;96246.00;10392415;28;20072;-35
2023/03/25 08:08:16;;;;;;;2.88;1.00;;;;;;;18.03;58.13;96259.47;10393871;28;20022;-36
2023/03/25 08:13:16;;;;;;;3.67;1.33;;;;;;;18.04;59.15;96263.69;10393289;28;20501;-34
2023/03/25 08:18:17;;;;;;;4.03;1.30;;;;;;;17.98;58.76;96233.34;10385232;28;20444;-33
2023/03/25 08:23:18;;;;;;;7.03;1.02;;;;;;;18.04;56.04;96256.09;10397445;28;20288;-35
2023/03/25 08:28:23;;;;;;;4.30;1.33;;;;;;;18.04;55.61;96251.88;10387031;28;20108;-34
2023/03/25 08:33:26;;;;;;;3.13;1.00;;;;;;;18.04;58.07;96276.34;10385588;28;20026;-34
2023/03/25 08:38:30;;;;;;;6.13;1.23;;;;;;;18.04;57.61;96279.72;10388311;28;20514;-35
2023/03/25 08:43:31;;;;;;;5.03;1.23;;;;;;;18.05;57.51;96293.22;10382971;28;20033;-33
2023/03/25 08:48:31;;;;;;;4.60;1.83;;;;;;;18.05;57.43;96298.28;10389903;28;20029;-34
2023/03/25 08:53:31;;;;;;;4.27;1.10;;;;;;;18.04;57.52;96291.53;10387020;28;20049;-35
2023/03/25 08:58:32;;;;;;;4.43;1.03;;;;;;;18.05;57.84;96298.28;10393035;28;20045;-34
2023/03/25 09:03:32;;;;;;;4.00;1.57;;;;;;;18.06;56.80;96294.91;10387964;28;20288;-34
2023/03/25 09:08:33;;;;;;;3.85;0.88;;;;;;;18.05;57.52;96293.22;10391164;28;20513;-35
2023/03/25 09:13:34;;;;;;;5.90;1.02;;;;;;;18.04;58.13;96291.53;10395905;28;20414;-34
2023/03/25 09:18:35;;;;;;;3.67;0.80;;;;;;;18.04;58.40;96286.47;10387128;28;20117;-37
2023/03/25 09:23:36;;;;;;;2.45;0.68;;;;;;;18.06;57.69;96288.16;10395226;28;20402;-35
2023/03/25 09:28:36;;;;;;;3.30;0.93;;;;;;;18.08;58.03;96299.13;10384341;28;20048;-34
2023/03/25 09:33:36;;;;;;;2.05;0.80;;;;;;;18.10;56.85;96278.84;10386713;28;20091;-34
2023/03/25 09:38:37;;;;;;;3.63;0.93;;;;;;;18.09;58.08;96284.78;10379606;28;20045;-35
2023/03/25 09:44:03;;;;;;;4.53;0.73;;;;;;;18.07;56.66;96294.91;10368734;28;20399;-33
2023/03/25 09:49:13;;;;;;;3.77;0.93;;;;;;;18.11;55.76;96323.59;10375872;28;20037;-33
2023/03/25 09:54:37;;;;;;;4.50;0.82;;;;;;;18.09;57.92;96315.16;10383482;28;20087;-35
2023/03/25 09:59:47;;;;;;;4.95;1.00;;;;;;;18.09;57.56;96325.31;10376812;28;20047;-34
2023/03/25 10:05:02;;;;;;;3.53;0.82;;;;;;;18.07;58.27;96332.06;10385805;28;20040;-35
2023/03/25 10:10:20;;;;;;;2.20;0.68;;;;;;;18.07;57.94;96348.09;10378128;28;20037;-33
2023/03/25 10:15:45;;;;;;;1.02;0.57;;;;;;;18.07;55.90;96350.63;10383783;28;20083;-35
2023/03/25 10:21:00;;;;;;;2.20;0.75;;;;;;;18.08;58.45;96348.97;10376440;28;20038;-34
2023/03/25 10:26:08;;;;;;;5.43;0.73;;;;;;;18.12;57.07;96351.47;10382897;28;20037;-35
2023/03/25 10:31:17;;;;;;;2.38;0.60;;;;;;;18.10;58.18;96353.16;10382603;28;20061;-35
2023/03/25 10:36:23;;;;;;;2.13;0.70;;;;;;;18.08;58.46;96369.22;10390759;28;20036;-35
2023/03/25 10:41:34;;;;;;;2.20;0.90;;;;;;;18.08;59.34;96348.97;10384028;28;20536;-36
2023/03/25 10:46:46;;;;;;;2.78;0.60;;;;;;;18.07;57.82;96363.31;10377079;28;20280;-35
2023/03/25 10:51:53;;;;;;;1.55;0.68;;;;;;;18.10;56.57;96357.38;10382797;28;20452;-34
2023/03/25 10:57:01;;;;;;;5.38;0.98;;;;;;;18.19;57.36;96343.00;10373725;28;20033;-34
2023/03/25 11:02:26;;;;;;;3.30;0.82;;;;;;;18.13;57.90;96347.22;10379160;28;20042;-35
2023/03/25 11:07:31;;;;;;;3.05;0.70;;;;;;;18.10;58.53;96347.25;10376778;28;20043;-33
2023/03/25 11:12:32;;;;;;;5.47;0.80;;;;;;;18.10;57.23;96349.78;10385545;28;20464;-34
2023/03/25 11:17:33;;;;;;;11.65;1.45;;;;;;;18.10;57.75;96348.09;10382045;28;20096;-35
2023/03/25 11:22:35;;;;;;;5.95;0.95;;;;;;;18.10;59.16;96362.44;10373187;28;20042;-33
2023/03/25 11:27:44;;;;;;;7.20;0.77;;;;;;;18.09;59.88;96346.41;10393211;28;20053;-33
2023/03/25 11:32:58;;;;;;;8.57;1.75;;;;;;;18.13;57.44;96337.94;10381637;28;20065;-34
2023/03/25 11:38:01;;;;;;;8.73;1.30;;;;;;;18.12;57.19;96330.34;10392478;28;20030;-34
2023/03/25 11:43:05;;;;;;;4.95;1.15;;;;;;;18.14;56.89;96336.25;10389463;28;20042;-34
2023/03/25 11:48:14;;;;;;;12.75;1.10;;;;;;;18.10;58.40;96332.91;10389089;28;20104;-34
2023/03/25 11:53:15;;;;;;;4.43;0.85;;;;;;;18.08;58.63;96352.31;10391070;28;20078;-34
2023/03/25 11:58:20;;;;;;;4.82;0.82;;;;;;;18.10;58.64;96342.19;10390213;28;20124;-33
2023/03/25 12:03:25;;;;;;;140.63;30.20;;;;;;;18.11;58.18;96341.34;10391172;28;20034;-34
2023/03/25 12:08:41;;;;;;;25.23;3.42;;;;;;;18.11;56.78;96338.78;10392765;28;20033;-34
2023/03/25 12:13:59;;;;;;;20.55;5.70;;;;;;;18.14;57.63;96353.97;10401637;28;20416;-36
2023/03/25 12:19:20;;;;;;;13.55;3.08;;;;;;;18.12;57.04;96340.47;10382158;28;20112;-34
2023/03/25 12:24:35;;;;;;;16.92;4.50;;;;;;;18.13;59.11;96342.16;10384658;28;20036;-33
2023/03/25 12:29:40;;;;;;;16.83;3.83;;;;;;;18.16;59.37;96367.50;10381284;28;20398;-39
2023/03/25 12:35:01;;;;;;;12.68;3.20;;;;;;;18.15;59.07;96325.28;10382151;28;20049;-34
2023/03/25 12:40:20;;;;;;;11.85;3.55;;;;;;;18.10;58.10;96320.25;10379255;28;20472;-34
2023/03/25 12:46:00;;;;;;;11.32;4.07;;;;;;;18.12;58.78;96312.63;10397945;28;20486;-34
2023/03/25 12:51:20;;;;;;;11.55;3.92;;;;;;;18.09;59.15;96312.63;10382698;28;20570;-33
2023/03/25 12:56:40;;;;;;;10.00;2.40;;;;;;;18.07;59.31;96321.94;10381643;28;20037;-34
2023/03/25 13:01:57;;;;;;;10.15;2.70;;;;;;;18.06;59.33;96312.63;10386170;28;20095;-33
2023/03/25 13:07:06;;;;;;;9.63;2.85;;;;;;;18.04;59.19;96311.81;10377683;28;20100;-35
2023/03/25 13:12:18;;;;;;;10.57;2.45;;;;;;;18.05;58.96;96309.28;10383362;28;20124;-34
2023/03/25 13:17:29;;;;;;;14.15;2.33;;;;;;;17.99;58.63;96286.50;10376664;28;20399;-33
2023/03/25 13:22:38;;;;;;;6.93;2.08;;;;;;;18.05;56.37;96298.28;10380999;28;20044;-36
2023/03/25 13:27:40;;;;;;;11.57;2.83;;;;;;;18.04;59.13;96334.59;10383397;28;20045;-34
2023/03/25 13:32:49;;;;;;;29.23;7.82;;;;;;;18.11;59.51;96321.06;10381412;28;20041;-36
2023/03/25 13:37:55;;;;;;;23.00;6.90;;;;;;;18.16;58.87;96314.28;10384066;28;20576;-33
2023/03/25 13:43:06;;;;;;;23.20;4.90;;;;;;;18.05;56.91;96303.34;10386837;28;20560;-35
2023/03/25 13:48:34;;;;;;;18.35;4.55;;;;;;;18.03;57.58;96321.13;10389287;28;20544;-34
2023/03/25 13:53:38;;;;;;;19.30;4.95;;;;;;;18.03;59.06;96321.13;10392112;28;20038;-33
2023/03/25 13:59:06;;;;;;;15.00;4.90;;;;;;;18.01;57.31;96340.53;10371217;28;20561;-34
2023/03/25 14:04:18;;;;;;;23.42;4.60;;;;;;;18.00;58.47;96338.00;10378545;28;20565;-34
2023/03/25 14:09:34;;;;;;;12.30;3.83;;;;;;;17.99;57.58;96343.94;10381697;28;20468;-36
2023/03/25 14:14:40;;;;;;;11.98;3.08;;;;;;;17.99;55.78;96346.47;10383169;28;20683;-35
2023/03/25 14:19:47;;;;;;;12.18;3.63;;;;;;;18.01;58.33;96344.75;10383091;28;20064;-36
2023/03/25 14:24:48;;;;;;;12.73;3.90;;;;;;;18.00;57.73;96335.47;10389350;28;20076;-35
2023/03/25 14:30:06;;;;;;;14.98;3.58;;;;;;;18.00;57.90;96330.41;10387963;28;20062;-35
2023/03/25 14:35:35;;;;;;;14.95;4.43;;;;;;;18.02;59.54;96336.31;10389660;28;20092;-35
2023/03/25 14:40:38;;;;;;;13.60;3.88;;;;;;;18.05;59.71;96336.28;10384837;28;20033;-35
2023/03/25 14:46:09;;;;;;;11.80;4.35;;;;;;;18.05;58.96;96343.88;10381729;28;20117;-34
2023/03/25 14:51:25;;;;;;;13.52;3.47;;;;;;;18.02;58.36;96344.75;10380122;28;20042;-34
2023/03/25 14:56:33;;;;;;;12.73;5.43;;;;;;;18.00;58.86;96328.72;10384022;28;20414;-34
2023/03/25 15:01:36;;;;;;;11.77;3.05;;;;;;;18.03;59.05;96330.38;10397481;28;20042;-34
2023/03/25 15:06:37;;;;;;;10.38;3.45;;;;;;;18.02;59.07;96328.72;10395606;28;20025;-35
2023/03/25 15:11:41;;;;;;;9.55;2.90;;;;;;;18.00;57.68;96310.16;10390534;28;20042;-34
2023/03/25 15:16:44;;;;;;;13.57;2.63;;;;;;;18.00;55.25;96310.16;10377334;28;20044;-35
2023/03/25 15:21:57;;;;;;;6.45;2.60;;;;;;;18.00;54.96;96307.63;10380570;28;20413;-36
2023/03/25 15:27:00;;;;;;;13.57;3.00;;;;;;;18.01;56.89;96299.16;10384986;28;20486;-35
2023/03/25 15:32:01;;;;;;;8.65;2.58;;;;;;;18.02;56.48;96303.38;10384774;28;20151;-34
2023/03/25 15:37:22;;;;;;;6.47;3.17;;;;;;;17.95;57.61;96273.84;10386074;28;20123;-34
2023/03/25 15:42:51;;;;;;;10.77;2.65;;;;;;;18.06;58.85;96277.16;10396894;28;20037;-37
2023/03/25 15:48:09;;;;;;;9.20;2.78;;;;;;;18.08;58.89;96272.97;10393985;28;20034;-34
2023/03/25 15:53:39;;;;;;;8.18;2.85;;;;;;;18.02;58.03;96273.84;10396441;28;20095;-35
2023/03/25 15:59:02;;;;;;;11.93;2.75;;;;;;;18.02;56.10;96262.84;10389772;28;20387;-34
2023/03/25 16:04:34;;;;;;;5.28;2.10;;;;;;;18.00;55.36;96270.44;10400501;28;20033;-33
2023/03/25 16:09:43;;;;;;;5.63;2.50;;;;;;;17.99;55.73;96273.00;10386430;28;20033;-33
2023/03/25 16:14:45;;;;;;;9.90;2.70;;;;;;;17.98;54.95;96273.88;10388594;28;20033;-35
2023/03/25 16:19:52;;;;;;;7.05;1.88;;;;;;;17.92;55.07;96263.75;10385648;28;20036;-34
2023/03/25 16:24:55;;;;;;;6.03;2.67;;;;;;;17.95;57.88;96278.94;10395767;28;20029;-35
2023/03/25 16:29:56;;;;;;;9.30;3.03;;;;;;;17.95;58.13;96286.53;10386365;28;20075;-33
2023/03/25 16:34:57;;;;;;;5.95;1.70;;;;;;;17.97;56.11;96295.81;10404682;28;20037;-33
2023/03/25 16:39:57;;;;;;;5.88;1.90;;;;;;;17.99;55.03;96290.75;10395848;28;20120;-34
2023/03/25 16:44:58;;;;;;;6.60;1.70;;;;;;;18.00;58.22;96290.72;10391025;28;20052;-35
2023/03/25 16:50:00;;;;;;;8.55;2.40;;;;;;;18.03;58.49;96290.72;10387808;28;20036;-36
2023/03/25 16:55:00;;;;;;;7.75;1.98;;;;;;;18.04;58.46;96307.59;10394092;28;20071;-35
2023/03/25 17:00:16;;;;;;;6.78;1.88;;;;;;;17.99;57.76;96288.22;10392284;28;20052;-35
2023/03/25 17:05:23;;;;;;;8.35;1.70;;;;;;;18.00;57.66;96284.81;10379980;28;20120;-34
2023/03/25 17:10:27;;;;;;;8.77;1.70;;;;;;;18.00;57.56;96289.88;10385493;28;20017;-35
2023/03/25 17:15:33;;;;;;;6.20;1.60;;;;;;;17.99;58.04;96280.63;10391258;28;20042;-34
2023/03/25 17:20:38;;;;;;;5.53;2.15;;;;;;;17.97;57.36;96275.53;10390172;28;20026;-33
2023/03/25 17:25:59;;;;;;;4.70;1.60;;;;;;;17.98;57.62;96286.53;10385032;28;20046;-34
2023/03/25 17:31:31;;;;;;;3.08;1.65;;;;;;;17.98;57.83;96284.00;10389843;28;20040;-34
2023/03/25 17:36:35;;;;;;;5.78;2.00;;;;;;;17.99;58.21;96288.22;10379092;28;20030;-34
2023/03/25 17:41:38;;;;;;;4.78;1.58;;;;;;;17.99;57.96;96298.34;10390834;28;20120;-34
2023/03/25 17:46:39;;;;;;;5.07;1.67;;;;;;;17.99;58.08;96299.16;10391537;28;20453;-35
2023/03/25 17:51:39;;;;;;;4.03;1.40;;;;;;;18.02;58.52;96303.38;10383000;28;20037;-35
2023/03/25 17:56:43;;;;;;;3.78;1.67;;;;;;;18.04;58.35;96302.53;10396004;28;20551;-33
2023/03/25 18:01:45;;;;;;;8.02;1.50;;;;;;;18.02;56.57;96303.38;10394927;28;20120;-34
2023/03/25 18:06:45;;;;;;;3.22;1.15;;;;;;;18.00;55.61;96300.03;10382554;28;20025;-34
2023/03/25 18:11:49;;;;;;;3.83;1.30;;;;;;;18.01;56.24;96316.91;10390615;28;20511;-34
2023/03/25 18:16:50;;;;;;;6.30;1.67;;;;;;;17.98;57.90;96317.75;10386544;28;20302;-34
2023/03/25 18:21:51;;;;;;;3.38;1.65;;;;;;;17.92;55.88;96316.94;10384164;28;20033;-35
2023/03/25 18:26:54;;;;;;;5.20;1.63;;;;;;;17.94;58.27;96305.09;10382623;28;20099;-34
2023/03/25 18:31:55;;;;;;;3.80;1.13;;;;;;;17.96;58.33;96321.13;10392902;28;20456;-34
2023/03/25 18:36:56;;;;;;;4.70;1.40;;;;;;;17.94;58.15;96318.63;10391466;28;20025;-34
2023/03/25 18:41:57;;;;;;;4.65;1.63;;;;;;;17.95;58.49;96325.38;10397285;28;20040;-34
2023/03/25 18:46:57;;;;;;;3.27;1.10;;;;;;;17.94;56.09;96317.78;10392869;28;20486;-33
2023/03/25 18:51:58;;;;;;;3.60;1.30;;;;;;;17.91;56.10;96310.19;10400153;28;20301;-36
2023/03/25 18:56:58;;;;;;;2.97;1.55;;;;;;;18.00;59.09;96325.34;10399955;28;20033;-34
2023/03/25 19:01:59;;;;;;;13.63;1.63;;;;;;;17.99;59.52;96313.53;10391048;28;20044;-34
2023/03/25 19:07:00;;;;;;;4.32;1.42;;;;;;;18.01;59.14;96322.78;10388127;28;20512;-36
2023/03/25 19:12:00;;;;;;;3.40;1.50;;;;;;;18.02;59.19;96323.66;10396355;28;20030;-35
2023/03/25 19:17:00;;;;;;;1.77;0.97;;;;;;;18.02;59.56;96333.78;10394250;28;20110;-35
2023/03/25 19:22:01;;;;;;;5.73;1.97;;;;;;;18.03;59.82;96332.91;10393297;28;20129;-34
2023/03/25 19:27:01;;;;;;;6.27;1.33;;;;;;;17.94;59.57;96327.91;10394440;28;20067;-36
2023/03/25 19:32:01;;;;;;;3.33;1.52;;;;;;;18.02;59.84;96343.91;10394360;28;20452;-34
2023/03/25 19:37:03;;;;;;;4.15;1.42;;;;;;;18.01;59.82;96337.16;10390920;28;20105;-35
2023/03/25 19:42:04;;;;;;;3.80;1.05;;;;;;;18.00;59.56;96345.63;10394623;28;20025;-34
2023/03/25 19:47:05;;;;;;;3.45;1.33;;;;;;;17.98;59.66;96338.00;10384298;28;20025;-35
2023/03/25 19:52:05;;;;;;;2.67;1.17;;;;;;;17.99;56.29;96349.00;10387950;28;20041;-34
2023/03/25 19:57:08;;;;;;;5.57;1.48;;;;;;;17.94;58.57;96312.69;10381503;28;20088;-34
2023/03/25 20:02:13;;;;;;;3.63;1.48;;;;;;;18.02;59.59;96321.09;10393983;28;20026;-34
2023/03/25 20:07:14;;;;;;;2.73;1.30;;;;;;;18.02;59.73;96314.38;10376333;28;20022;-35
2023/03/25 20:12:15;;;;;;;3.45;1.27;;;;;;;18.04;59.02;96327.00;10395712;28;20029;-35
2023/03/25 20:17:15;;;;;;;4.00;1.13;;;;;;;18.00;59.04;96300.03;10390840;28;20099;-36
2023/03/25 20:22:16;;;;;;;2.40;0.80;;;;;;;17.99;58.71;96326.19;10392039;28;20040;-34
2023/03/25 20:27:16;;;;;;;4.63;1.25;;;;;;;17.98;58.93;96322.00;10387979;28;20026;-33
2023/03/25 20:32:17;;;;;;;2.22;1.17;;;;;;;17.98;58.95;96332.13;10390513;28;20648;-34
2023/03/25 20:37:18;;;;;;;2.00;0.98;;;;;;;17.97;58.96;96332.94;10388498;28;20041;-35
2023/03/25 20:42:18;;;;;;;4.63;1.00;;;;;;;17.95;58.36;96338.03;10394310;28;20033;-34
2023/03/25 20:47:18;;;;;;;5.05;1.08;;;;;;;17.97;58.97;96322.81;10387024;28;20038;-34
2023/03/25 20:52:19;;;;;;;2.83;1.20;;;;;;;17.94;58.83;96325.38;10380062;28;20038;-34
2023/03/25 20:57:20;;;;;;;7.13;1.42;;;;;;;17.95;58.91;96315.25;10388945;28;20073;-34
2023/03/25 21:02:23;;;;;;;3.05;1.38;;;;;;;17.97;59.09;96320.28;10389665;28;20042;-36
2023/03/25 21:07:28;;;;;;;4.50;1.40;;;;;;;17.99;59.02;96318.59;10378530;28;20520;-35
2023/03/25 21:12:28;;;;;;;2.53;1.00;;;;;;;18.02;59.15;96313.50;10391267;28;20055;-35
2023/03/25 21:17:29;;;;;;;4.35;1.23;;;;;;;18.02;58.53;96304.25;10378753;28;20581;-34
2023/03/25 21:22:29;;;;;;;1.83;1.20;;;;;;;17.97;58.52;96300.88;10373870;28;20196;-36
2023/03/25 21:27:31;;;;;;;2.80;1.38;;;;;;;17.98;58.61;96300.00;10375837;28;20501;-34
2023/03/25 21:32:32;;;;;;;3.85;1.00;;;;;;;17.96;58.56;96311.84;10383366;28;20049;-35
2023/03/25 21:37:39;;;;;;;3.38;1.00;;;;;;;17.98;58.75;96319.47;10391716;28;20045;-34
2023/03/25 21:42:40;;;;;;;4.40;1.05;;;;;;;17.97;58.31;96312.69;10377338;28;20041;-32
2023/03/25 21:47:43;;;;;;;2.40;0.88;;;;;;;17.97;58.61;96332.94;10382121;28;20034;-32
2023/03/25 21:52:47;;;;;;;2.25;1.00;;;;;;;17.96;58.59;96333.78;10375814;28;20056;-31
2023/03/25 21:57:48;;;;;;;3.22;1.33;;;;;;;17.96;58.57;96324.50;10384028;28;20034;-32
2023/03/25 22:02:49;;;;;;;2.00;0.80;;;;;;;17.93;55.88;96304.25;10382029;28;20416;-31
2023/03/25 22:07:50;;;;;;;1.50;0.68;;;;;;;17.95;57.76;96311.84;10386900;28;20116;-32
2023/03/25 22:12:50;;;;;;;2.10;0.88;;;;;;;18.01;58.64;96305.06;10391223;28;20045;-33
2023/03/25 22:17:50;;;;;;;2.63;0.80;;;;;;;18.04;59.52;96296.59;10391044;28;20185;-32
2023/03/25 22:22:52;;;;;;;3.33;0.70;;;;;;;17.99;58.75;96299.16;10388189;28;20030;-32
2023/03/25 22:27:52;;;;;;;1.92;0.90;;;;;;;17.99;59.09;96303.41;10381324;28;20120;-31
2023/03/25 22:32:53;;;;;;;4.23;1.30;;;;;;;17.99;59.13;96293.28;10385883;28;20041;-33
2023/03/25 22:37:54;;;;;;;5.30;1.20;;;;;;;17.97;58.81;96297.47;10381418;28;20065;-33
2023/03/25 22:42:55;;;;;;;3.58;1.00;;;;;;;17.95;58.90;96289.91;10380592;28;20041;-33
2023/03/25 22:47:55;;;;;;;4.25;1.00;;;;;;;17.96;59.02;96288.19;10387392;28;20397;-35
2023/03/25 22:52:56;;;;;;;3.73;1.50;;;;;;;17.95;58.95;96278.94;10385494;28;20045;-32
2023/03/25 22:57:56;;;;;;;1.92;0.80;;;;;;;17.93;58.80;96273.84;10389355;28;20080;-34
2023/03/25 23:02:56;;;;;;;1.87;1.00;;;;;;;17.93;58.83;96278.91;10387463;28;20451;-34
2023/03/25 23:07:57;;;;;;;4.37;1.10;;;;;;;17.92;58.71;96266.28;10382454;28;20124;-32
2023/03/25 23:12:57;;;;;;;5.17;1.30;;;;;;;17.89;58.40;96262.06;10391273;28;20318;-32
2023/03/25 23:17:57;;;;;;;4.13;1.00;;;;;;;17.95;59.40;96257.00;10387436;28;20038;-33
2023/03/25 23:22:58;;;;;;;3.17;1.00;;;;;;;17.97;59.34;96256.97;10383941;28;20042;-33
2023/03/25 23:27:58;;;;;;;3.93;0.90;;;;;;;17.96;58.96;96247.69;10387169;28;20043;-33
2023/03/25 23:32:58;;;;;;;3.20;0.80;;;;;;;17.93;58.64;96235.03;10394853;28;20034;-33
2023/03/25 23:37:59;;;;;;;5.70;0.87;;;;;;;17.89;57.74;96230.84;10396200;28;20099;-32